< < Back
Terminal Aerodrome Forecast


Current Version              Previous Versions:   1  2  3  4  5  6  7  8  9  

Terminal Aerodrome Forecast

760
FTUS42 KFFC 252151 AAB
TAFATL
TAF AMD
KATL 252151Z 2522/2624 21010G16KT P6SM SCT035 BKN050
      TEMPO 2522/2602 VRB15G30KT 3SM TSRA BKN020CB
     FM260200 23010KT P6SM BKN040
     FM260800 24010KT 5SM BR BKN012 BKN035
     FM261300 28012KT P6SM BKN020
     FM261600 29015G25KT P6SM BKN045=

Latest METAR

240
SAUS70 KWBC 260600 RRE
MTRATL
METAR KATL 260552Z 24008KT 10SM FEW008 19/17 A2965 RMK AO2 SLP033 60011
T01940172 10233 20189 58002


USA.gov is the U.S. government's official web portal to all federal, state and local government web resources and services.